Time;durP1;ratioP1;P1;durP2;ratioP2;P2;SDS_P1;SDS_P2;PMS_P1;PMS_P2;Temp;Humidity;BMP_temperature;BMP_pressure;BME280_temperature;BME280_humidity;BME280_pressure;Samples;Min_cycle;Max_cycle;Signal;HPM_P1;HPM_P2
2023/12/03 00:00:31;;;;;;;60.50;30.63;;;0.20;99.90;;;;;;5110973;28;20043;-86
2023/12/03 00:02:57;;;;;;;56.50;28.63;;;0.20;99.90;;;;;;5077552;28;20044;-86
2023/12/03 00:05:23;;;;;;;60.23;30.63;;;1.70;99.90;;;;;;5076828;28;20292;-86
2023/12/03 00:07:49;;;;;;;57.97;31.10;;;1.20;99.90;;;;;;5074409;28;20049;-85
2023/12/03 00:10:15;;;;;;;54.20;27.17;;;-0.60;99.90;;;;;;5077339;28;20048;-86
2023/12/03 00:12:41;;;;;;;51.03;29.90;;;0.20;99.90;;;;;;5077764;28;20050;-85
2023/12/03 00:15:07;;;;;;;48.90;28.37;;;1.50;99.90;;;;;;5111458;28;20043;-86
2023/12/03 00:17:33;;;;;;;53.15;28.50;;;0.20;99.90;;;;;;5094015;28;20112;-86
2023/12/03 00:19:58;;;;;;;54.30;29.47;;;0.40;99.90;;;;;;5094526;28;20055;-86
2023/12/03 00:22:24;;;;;;;48.47;26.07;;;0.30;99.90;;;;;;5110787;28;20071;-86
2023/12/03 00:24:50;;;;;;;53.40;27.33;;;1.20;99.90;;;;;;5077890;28;20054;-86
2023/12/03 00:27:16;;;;;;;52.93;28.93;;;0.30;99.90;;;;;;5093512;28;20391;-89
2023/12/03 00:29:42;;;;;;;45.70;25.63;;;1.70;99.90;;;;;;5077748;28;20394;-86
2023/12/03 00:32:07;;;;;;;49.83;25.67;;;0.30;99.90;;;;;;5111593;28;20512;-85
2023/12/03 00:34:33;;;;;;;42.77;24.50;;;0.30;99.90;;;;;;5080695;28;20406;-86
2023/12/03 00:36:59;;;;;;;51.77;25.23;;;1.10;99.90;;;;;;5097892;28;20047;-85
2023/12/03 00:39:25;;;;;;;43.27;25.03;;;1.70;99.90;;;;;;5097422;28;20043;-86
2023/12/03 00:41:50;;;;;;;46.10;25.23;;;0.60;99.90;;;;;;5097808;28;20415;-86
2023/12/03 00:44:16;;;;;;;44.00;25.03;;;0.30;99.90;;;;;;5114287;28;20123;-85
2023/12/03 00:46:42;;;;;;;40.63;23.57;;;1.60;99.90;;;;;;5079884;28;20046;-86
2023/12/03 00:49:07;;;;;;;43.37;24.20;;;1.50;99.90;;;;;;5114320;28;20482;-86
2023/12/03 00:51:33;;;;;;;49.23;25.30;;;1.40;99.90;;;;;;5097160;28;20054;-86
2023/12/03 00:53:59;;;;;;;40.77;24.47;;;1.50;99.90;;;;;;5097641;28;20130;-85
2023/12/03 00:56:24;;;;;;;40.93;23.10;;;1.40;99.90;;;;;;5080168;28;20141;-86
2023/12/03 00:58:50;;;;;;;36.20;23.33;;;1.50;99.90;;;;;;5097178;28;20195;-86
2023/12/03 01:01:19;;;;;;;42.87;25.87;;;1.20;99.90;;;;;;5080776;28;20040;-86
2023/12/03 01:03:44;;;;;;;45.67;25.00;;;0.40;99.90;;;;;;5113010;28;20040;-86
2023/12/03 01:06:10;;;;;;;43.43;23.13;;;0.30;99.90;;;;;;5097141;28;20173;-86
2023/12/03 01:08:36;;;;;;;35.43;22.50;;;1.70;99.90;;;;;;5072616;28;20132;-86
2023/12/03 01:11:06;;;;;;;40.00;22.77;;;0.40;99.90;;;;;;5078041;28;20457;-86
2023/12/03 01:13:31;;;;;;;38.67;24.05;;;0.40;99.90;;;;;;5113743;28;20068;-86
2023/12/03 01:15:57;;;;;;;40.03;23.33;;;1.80;99.90;;;;;;5097323;28;20122;-86
2023/12/03 01:18:23;;;;;;;41.80;24.30;;;1.60;99.90;;;;;;5113010;28;20071;-88
2023/12/03 01:20:51;;;;;;;38.80;24.23;;;0.60;99.90;;;;;;5076823;28;20047;-86
2023/12/03 01:23:16;;;;;;;42.80;26.45;;;1.00;99.90;;;;;;5106049;28;20048;-85
2023/12/03 01:25:42;;;;;;;36.23;22.93;;;1.90;99.90;;;;;;5096217;28;20303;-86
2023/12/03 01:28:08;;;;;;;40.90;23.50;;;0.30;99.90;;;;;;5076170;28;20040;-85
2023/12/03 01:30:33;;;;;;;39.03;22.90;;;0.30;99.90;;;;;;5110615;28;20043;-86
2023/12/03 01:32:59;;;;;;;38.87;23.10;;;0.70;99.90;;;;;;5096794;28;20044;-86
2023/12/03 01:35:25;;;;;;;43.87;24.43;;;1.70;99.90;;;;;;5096228;28;20100;-87
2023/12/03 01:37:53;;;;;;;40.60;25.03;;;0.80;99.90;;;;;;5096743;28;20054;-86
2023/12/03 01:40:19;;;;;;;36.50;22.88;;;1.50;99.90;;;;;;5113762;28;20083;-86
2023/12/03 01:42:45;;;;;;;40.20;25.07;;;0.30;99.90;;;;;;5079494;28;20643;-86
2023/12/03 01:45:11;;;;;;;40.17;25.20;;;0.30;99.90;;;;;;5062699;28;20096;-86
2023/12/03 01:47:37;;;;;;;44.30;24.63;;;0.50;99.90;;;;;;5095873;28;20471;-86
2023/12/03 01:50:12;;;;;;;41.63;24.33;;;1.80;99.90;;;;;;5100055;27;20042;-86
2023/12/03 01:52:40;;;;;;;43.15;25.15;;;0.40;99.90;;;;;;5122817;27;20126;-86
2023/12/03 01:55:07;;;;;;;42.55;25.52;;;1.90;99.90;;;;;;5096919;28;20050;-85
2023/12/03 01:57:33;;;;;;;49.53;23.92;;;-0.60;99.90;;;;;;5078177;28;20506;-85
2023/12/03 01:59:59;;;;;;;43.63;22.27;;;1.40;99.90;;;;;;5096136;28;20105;-86
2023/12/03 02:02:26;;;;;;;50.97;25.40;;;0.40;99.90;;;;;;5096358;28;20525;-86
2023/12/03 02:04:52;;;;;;;80.07;27.10;;;0.40;99.90;;;;;;5095955;28;20119;-86
2023/12/03 02:07:18;;;;;;;75.20;26.77;;;1.50;99.90;;;;;;5095598;28;20475;-87
2023/12/03 02:09:44;;;;;;;55.80;25.10;;;0.40;99.90;;;;;;5095051;28;20054;-86
2023/12/03 02:12:09;;;;;;;99.32;29.60;;;0.40;99.90;;;;;;5096140;28;20123;-86
2023/12/03 02:14:35;;;;;;;111.20;29.47;;;1.00;99.90;;;;;;5112631;28;20181;-86
2023/12/03 02:17:02;;;;;;;94.53;27.67;;;1.10;99.90;;;;;;5075727;28;20161;-86
2023/12/03 02:19:28;;;;;;;83.65;26.73;;;0.40;99.90;;;;;;5095748;28;20051;-86
2023/12/03 02:21:53;;;;;;;162.93;35.60;;;1.80;99.90;;;;;;5112261;28;20043;-86
2023/12/03 02:24:19;;;;;;;145.60;32.23;;;1.90;99.90;;;;;;5091984;28;20043;-86
2023/12/03 02:26:45;;;;;;;133.83;33.10;;;0.40;99.90;;;;;;5091976;28;20035;-86
2023/12/03 02:29:10;;;;;;;151.23;34.23;;;0.40;99.90;;;;;;5095314;28;20112;-86
2023/12/03 02:31:36;;;;;;;151.90;37.97;;;0.50;99.90;;;;;;5095288;28;20077;-85
2023/12/03 02:34:02;;;;;;;134.80;34.70;;;0.40;99.90;;;;;;5112452;28;20047;-86
2023/12/03 02:36:27;;;;;;;144.70;39.07;;;0.50;99.90;;;;;;5112161;28;20139;-86
2023/12/03 02:38:54;;;;;;;98.57;35.03;;;1.50;99.90;;;;;;5111708;28;20035;-86
2023/12/03 02:41:20;;;;;;;109.45;35.35;;;1.90;99.90;;;;;;5058236;28;20490;-85
2023/12/03 02:43:46;;;;;;;97.80;28.10;;;0.40;99.90;;;;;;5077257;28;20044;-86
2023/12/03 02:46:13;;;;;;;116.10;33.07;;;0.40;99.90;;;;;;5077815;28;20054;-86
2023/12/03 02:48:39;;;;;;;117.65;37.17;;;1.50;99.90;;;;;;5094636;28;20051;-86
2023/12/03 02:51:05;;;;;;;137.10;34.57;;;1.60;99.90;;;;;;5094546;28;20047;-86
2023/12/03 02:53:31;;;;;;;140.90;34.53;;;0.40;99.90;;;;;;5112596;28;20067;-86
2023/12/03 02:55:58;;;;;;;150.47;36.03;;;0.50;99.90;;;;;;5077385;28;20047;-86
2023/12/03 02:58:24;;;;;;;180.35;37.08;;;0.80;99.90;;;;;;5078258;28;20059;-86
2023/12/03 03:00:50;;;;;;;123.77;31.63;;;1.90;99.90;;;;;;5111444;28;20119;-86
2023/12/03 03:03:15;;;;;;;155.47;35.13;;;1.10;99.90;;;;;;5112096;28;20079;-86
2023/12/03 03:05:41;;;;;;;179.43;41.03;;;0.40;99.90;;;;;;5094283;28;20055;-86
2023/12/03 03:08:07;;;;;;;216.70;47.23;;;0.40;99.90;;;;;;5111625;28;20040;-86
2023/12/03 03:10:32;;;;;;;158.00;37.07;;;1.20;99.90;;;;;;5094903;28;20044;-86
2023/12/03 03:12:58;;;;;;;265.80;46.97;;;1.40;99.90;;;;;;5074076;28;20040;-86
2023/12/03 03:15:24;;;;;;;168.37;37.17;;;1.70;99.90;;;;;;5078041;28;20044;-86
2023/12/03 03:17:50;;;;;;;203.93;43.53;;;1.10;99.90;;;;;;5077631;28;20047;-86
2023/12/03 03:20:17;;;;;;;188.70;37.83;;;0.30;99.90;;;;;;5094820;28;20055;-86
2023/12/03 03:22:42;;;;;;;;;;;0.30;99.90;;;;;;5111080;28;20047;-86
2023/12/03 03:25:09;;;;;;;181.13;37.78;;;1.70;99.90;;;;;;5078065;28;19919;-86
2023/12/03 03:27:35;;;;;;;146.40;37.30;;;0.20;99.90;;;;;;5058021;28;20050;-86
2023/12/03 03:30:00;;;;;;;132.27;38.33;;;0.30;99.90;;;;;;5057583;28;20040;-86
2023/12/03 03:32:26;;;;;;;168.93;39.57;;;0.30;99.90;;;;;;5104958;28;20104;-86
2023/12/03 03:34:52;;;;;;;113.33;37.47;;;0.30;99.90;;;;;;5078876;28;20477;-86
2023/12/03 03:37:17;;;;;;;184.10;47.47;;;1.60;99.90;;;;;;5060169;28;20040;-86
2023/12/03 03:39:43;;;;;;;184.07;47.53;;;1.80;99.90;;;;;;5057243;28;20042;-86
2023/12/03 03:42:09;;;;;;;248.43;55.97;;;0.30;99.90;;;;;;5050168;28;20532;-86
2023/12/03 03:44:35;;;;;;;163.73;39.50;;;1.70;99.90;;;;;;5094124;28;20036;-86
2023/12/03 03:47:00;;;;;;;251.83;52.77;;;1.40;99.90;;;;;;5093749;28;20178;-86
2023/12/03 03:49:26;;;;;;;178.90;39.27;;;1.60;99.90;;;;;;5094232;28;20039;-85
2023/12/03 03:51:52;;;;;;;236.00;53.23;;;0.50;99.90;;;;;;5093319;28;20491;-86
2023/12/03 03:54:18;;;;;;;235.67;51.77;;;1.70;99.90;;;;;;5094096;28;20050;-85
2023/12/03 03:56:47;;;;;;;227.67;48.73;;;0.90;99.90;;;;;;5093527;28;20089;-89
2023/12/03 03:59:13;;;;;;;227.10;53.10;;;1.70;99.90;;;;;;5092965;28;20131;-87
2023/12/03 04:01:43;;;;;;;180.10;42.50;;;0.40;99.90;;;;;;5077264;28;20043;-86
2023/12/03 04:04:10;;;;;;;198.35;53.47;;;1.60;99.90;;;;;;5059653;28;20484;-86
2023/12/03 04:06:44;;;;;;;227.00;48.53;;;1.70;99.90;;;;;;5094026;28;20039;-86
2023/12/03 04:09:11;;;;;;;214.05;51.60;;;0.40;99.90;;;;;;5114902;28;20055;-86
2023/12/03 04:11:42;;;;;;;284.15;61.25;;;1.40;99.90;;;;;;5115195;28;20406;-85
2023/12/03 04:14:08;;;;;;;296.58;67.57;;;1.60;99.90;;;;;;5097379;28;20479;-86
2023/12/03 04:16:37;;;;;;;232.03;56.63;;;1.60;99.90;;;;;;5098454;28;20061;-85
2023/12/03 04:19:03;;;;;;;228.98;53.22;;;1.90;99.90;;;;;;5114872;28;20127;-86
2023/12/03 04:21:29;;;;;;;231.43;60.80;;;1.60;99.90;;;;;;5098092;28;20047;-86
2023/12/03 04:23:57;;;;;;;341.98;82.00;;;1.60;99.90;;;;;;5114329;28;20389;-86
2023/12/03 04:26:23;;;;;;;288.40;72.47;;;1.90;99.90;;;;;;5081120;28;20062;-86
2023/12/03 04:28:49;;;;;;;253.25;65.35;;;0.50;99.90;;;;;;5080681;28;20052;-86
2023/12/03 04:31:23;;;;;;;217.90;67.90;;;1.90;99.90;;;;;;5098084;28;20109;-86
2023/12/03 04:33:50;;;;;;;251.68;74.00;;;0.50;99.90;;;;;;5097024;28;20066;-87
2023/12/03 04:36:17;;;;;;;227.73;66.95;;;1.90;99.90;;;;;;5115063;28;20075;-85
2023/12/03 04:38:43;;;;;;;233.18;69.18;;;0.50;99.90;;;;;;5097544;28;20082;-85
2023/12/03 04:41:11;;;;;;;266.60;74.80;;;0.50;99.90;;;;;;5097930;28;20050;-85
2023/12/03 04:43:37;;;;;;;197.67;64.00;;;2.00;99.90;;;;;;5097007;28;20043;-86
2023/12/03 04:46:04;;;;;;;196.13;64.87;;;1.30;99.90;;;;;;5114098;28;20285;-86
2023/12/03 04:48:31;;;;;;;252.25;73.68;;;0.50;99.90;;;;;;5097153;28;20116;-86
2023/12/03 04:50:57;;;;;;;270.98;76.65;;;1.90;99.90;;;;;;5114327;28;20054;-86
2023/12/03 04:53:22;;;;;;;288.52;78.47;;;0.50;99.90;;;;;;5114514;28;20042;-86
2023/12/03 04:55:48;;;;;;;271.93;73.27;;;1.40;99.90;;;;;;5097304;28;20134;-85
2023/12/03 04:58:14;;;;;;;217.47;65.20;;;0.50;99.90;;;;;;5096841;28;20059;-85
2023/12/03 05:00:40;;;;;;;235.20;70.93;;;1.90;99.90;;;;;;5115049;28;20154;-85
2023/12/03 05:03:05;;;;;;;224.20;61.00;;;0.50;99.90;;;;;;5096490;28;20062;-85
2023/12/03 05:05:31;;;;;;;273.13;75.03;;;2.00;99.90;;;;;;5079080;28;20487;-86
2023/12/03 05:07:57;;;;;;;264.50;71.47;;;0.70;99.90;;;;;;5113269;28;20093;-85
2023/12/03 05:10:23;;;;;;;207.90;60.87;;;0.50;99.90;;;;;;5097237;28;20040;-86
2023/12/03 05:12:50;;;;;;;296.00;74.00;;;1.90;99.90;;;;;;5097427;28;20048;-85
2023/12/03 05:15:16;;;;;;;246.98;65.38;;;1.80;99.90;;;;;;5080133;28;20176;-86
2023/12/03 05:17:42;;;;;;;253.87;63.40;;;1.60;99.90;;;;;;5076952;28;20127;-86
2023/12/03 05:20:09;;;;;;;207.27;59.77;;;1.80;99.90;;;;;;5075298;28;20054;-85
2023/12/03 05:22:34;;;;;;;149.85;49.15;;;0.50;99.90;;;;;;5096670;28;20082;-85
2023/12/03 05:25:00;;;;;;;172.87;55.27;;;0.50;99.90;;;;;;5096716;28;20128;-86
2023/12/03 05:27:26;;;;;;;178.40;53.13;;;1.80;99.90;;;;;;5095699;28;20483;-86
2023/12/03 05:29:51;;;;;;;129.53;41.80;;;0.50;99.90;;;;;;5096989;28;20530;-85
2023/12/03 05:32:17;;;;;;;166.77;49.30;;;0.40;99.90;;;;;;5077864;28;20044;-86
2023/12/03 05:34:45;;;;;;;186.43;52.53;;;1.20;99.90;;;;;;5096722;28;20528;-86
2023/12/03 05:37:13;;;;;;;176.23;52.22;;;0.40;99.90;;;;;;5095603;28;20044;-85
2023/12/03 05:39:42;;;;;;;161.20;46.83;;;0.40;99.90;;;;;;5113754;28;20049;-86
2023/12/03 05:42:13;;;;;;;167.15;45.92;;;1.80;99.90;;;;;;5078376;28;20046;-87
2023/12/03 05:44:38;;;;;;;218.00;60.78;;;0.40;99.90;;;;;;5076916;28;20050;-85
2023/12/03 05:47:04;;;;;;;215.20;55.80;;;1.40;99.90;;;;;;5104345;28;20040;-86
2023/12/03 05:49:32;;;;;;;221.13;57.10;;;0.30;99.90;;;;;;5113071;27;20044;-86
2023/12/03 05:51:58;;;;;;;168.77;48.78;;;1.40;99.90;;;;;;5095931;28;20055;-87
2023/12/03 05:54:24;;;;;;;248.75;61.65;;;0.90;99.90;;;;;;5096211;28;20043;-85
2023/12/03 05:56:50;;;;;;;178.20;53.37;;;1.50;99.90;;;;;;5113339;28;20046;-85
2023/12/03 05:59:16;;;;;;;181.70;49.20;;;1.70;99.90;;;;;;5095015;28;20047;-85
2023/12/03 06:01:42;;;;;;;182.57;53.17;;;1.20;99.90;;;;;;5095383;28;20383;-85
2023/12/03 06:04:07;;;;;;;150.70;45.77;;;0.40;99.90;;;;;;5074820;28;20130;-85
2023/12/03 06:06:36;;;;;;;152.97;46.10;;;1.50;99.90;;;;;;5089940;28;20118;-85
2023/12/03 06:09:06;;;;;;;231.45;59.67;;;1.30;99.90;;;;;;5111924;28;20060;-86
2023/12/03 06:11:32;;;;;;;184.75;51.80;;;0.40;99.90;;;;;;5095548;28;20126;-85
2023/12/03 06:13:58;;;;;;;160.98;48.30;;;1.00;99.90;;;;;;5096003;28;20045;-85
2023/12/03 06:16:24;;;;;;;164.55;49.85;;;0.40;99.90;;;;;;5112075;28;20057;-85
2023/12/03 06:18:50;;;;;;;135.40;43.83;;;0.50;99.90;;;;;;5095729;28;20043;-86
2023/12/03 06:21:16;;;;;;;110.23;38.97;;;1.80;99.90;;;;;;5090322;28;20123;-85
2023/12/03 06:23:42;;;;;;;148.10;43.17;;;0.40;99.90;;;;;;5059291;28;20063;-85
2023/12/03 06:26:08;;;;;;;123.80;39.13;;;0.40;99.90;;;;;;5086721;28;20035;-86
2023/12/03 06:28:34;;;;;;;134.45;44.28;;;0.40;99.90;;;;;;5095421;28;20117;-85
2023/12/03 06:31:00;;;;;;;141.83;44.03;;;0.40;99.90;;;;;;5095603;28;20047;-86
2023/12/03 06:33:28;;;;;;;169.83;49.40;;;0.40;99.90;;;;;;5093814;27;20494;-85
2023/12/03 06:35:54;;;;;;;185.18;48.75;;;1.60;99.90;;;;;;5111081;28;20108;-85
2023/12/03 06:38:19;;;;;;;188.93;50.73;;;0.50;99.90;;;;;;5094613;28;20040;-85
2023/12/03 06:40:45;;;;;;;183.00;50.30;;;0.10;99.90;;;;;;5095708;28;20055;-85
2023/12/03 06:43:11;;;;;;;198.63;53.30;;;1.30;99.90;;;;;;5094348;28;20066;-86
2023/12/03 06:45:40;;;;;;;218.07;58.03;;;1.40;99.90;;;;;;5112423;28;20375;-85
2023/12/03 06:48:06;;;;;;;177.75;51.40;;;0.50;99.90;;;;;;5061883;28;20044;-88
2023/12/03 06:50:32;;;;;;;192.52;55.70;;;1.60;99.90;;;;;;5111931;28;20040;-85
2023/12/03 06:52:58;;;;;;;169.27;49.83;;;1.90;99.90;;;;;;5095100;28;20099;-85
2023/12/03 06:55:23;;;;;;;193.97;55.03;;;1.80;99.90;;;;;;5094632;28;20050;-85
2023/12/03 06:57:50;;;;;;;168.37;48.70;;;0.90;99.90;;;;;;5094296;28;20119;-85
2023/12/03 07:00:17;;;;;;;149.10;49.15;;;1.80;99.90;;;;;;5093877;28;20134;-85
2023/12/03 07:02:43;;;;;;;130.90;45.75;;;0.50;99.90;;;;;;5074739;28;20040;-85
2023/12/03 07:05:09;;;;;;;146.37;45.27;;;1.80;99.90;;;;;;5109736;28;20047;-86
2023/12/03 07:07:35;;;;;;;134.50;44.00;;;1.30;99.90;;;;;;5094809;28;20046;-85
2023/12/03 07:10:00;;;;;;;145.37;49.33;;;1.90;99.90;;;;;;5094705;28;20493;-85
2023/12/03 07:12:26;;;;;;;135.70;45.73;;;1.90;99.90;;;;;;5094295;28;20359;-85
2023/12/03 07:14:52;;;;;;;154.60;47.10;;;0.60;99.90;;;;;;5093485;28;20044;-86
2023/12/03 07:17:18;;;;;;;119.40;44.20;;;0.60;99.90;;;;;;5076438;28;20123;-85
2023/12/03 07:19:44;;;;;;;143.20;47.20;;;0.60;99.90;;;;;;5105445;28;20130;-86
2023/12/03 07:22:10;;;;;;;129.93;44.50;;;0.60;99.90;;;;;;5093790;28;20035;-86
2023/12/03 07:24:38;;;;;;;117.57;41.03;;;1.70;99.90;;;;;;5094740;28;20104;-85
2023/12/03 07:27:04;;;;;;;134.32;40.55;;;0.70;99.90;;;;;;5094467;28;20047;-85
2023/12/03 07:29:30;;;;;;;122.38;40.20;;;-0.50;99.90;;;;;;5094215;28;20686;-86
2023/12/03 07:31:55;;;;;;;110.73;38.57;;;2.20;99.90;;;;;;5077603;28;20141;-86
2023/12/03 07:34:21;;;;;;;101.37;34.10;;;0.70;99.90;;;;;;5074075;28;20139;-86
2023/12/03 07:36:47;;;;;;;93.20;32.87;;;1.80;99.90;;;;;;5090173;28;20075;-85
2023/12/03 07:39:13;;;;;;;86.97;31.60;;;1.40;99.90;;;;;;5094197;28;20044;-86
2023/12/03 07:41:39;;;;;;;98.13;34.33;;;2.10;99.90;;;;;;5112101;28;20039;-86
2023/12/03 07:44:05;;;;;;;93.73;32.10;;;0.70;99.90;;;;;;5115192;28;20117;-86
2023/12/03 07:46:32;;;;;;;87.97;31.73;;;1.70;99.90;;;;;;5114901;28;20195;-86
2023/12/03 07:48:58;;;;;;;99.18;31.88;;;0.70;99.90;;;;;;5109741;28;20078;-86
2023/12/03 07:51:24;;;;;;;89.73;34.53;;;2.30;99.90;;;;;;5072025;28;20078;-86
2023/12/03 07:53:50;;;;;;;94.77;34.00;;;0.70;99.90;;;;;;5067617;28;20096;-85
2023/12/03 07:56:16;;;;;;;106.23;36.97;;;2.10;99.90;;;;;;5064777;28;20118;-86
2023/12/03 07:58:41;;;;;;;91.90;29.67;;;0.70;99.90;;;;;;5098019;28;20063;-86
2023/12/03 08:01:07;;;;;;;93.97;32.50;;;1.90;99.90;;;;;;5078418;28;20048;-86
2023/12/03 08:03:33;;;;;;;100.00;35.10;;;0.70;99.90;;;;;;5078010;28;20036;-86
2023/12/03 08:05:59;;;;;;;113.13;37.00;;;1.70;99.90;;;;;;5091366;28;20046;-86
2023/12/03 08:08:24;;;;;;;91.23;34.90;;;2.20;99.90;;;;;;5114537;28;20036;-86
2023/12/03 08:10:50;;;;;;;89.90;33.97;;;2.00;99.90;;;;;;5100920;28;20044;-85
2023/12/03 08:13:16;;;;;;;101.10;34.57;;;0.80;99.90;;;;;;5097285;28;20057;-88
2023/12/03 08:15:41;;;;;;;93.60;32.60;;;1.60;99.90;;;;;;5094786;28;20055;-86
2023/12/03 08:18:10;;;;;;;101.20;35.43;;;2.10;99.90;;;;;;5098198;28;20035;-86
2023/12/03 08:20:35;;;;;;;85.03;30.45;;;1.70;99.90;;;;;;5116200;28;20263;-87
2023/12/03 08:23:01;;;;;;;93.03;33.37;;;1.10;99.90;;;;;;5077886;28;20075;-86
2023/12/03 08:25:27;;;;;;;91.47;30.77;;;2.10;99.90;;;;;;5106527;28;20482;-88
2023/12/03 08:27:53;;;;;;;91.53;32.23;;;2.00;99.90;;;;;;5097906;28;20513;-87
2023/12/03 08:30:18;;;;;;;87.57;32.33;;;2.10;99.90;;;;;;5097660;28;20587;-87
2023/12/03 08:32:44;;;;;;;75.23;28.90;;;2.10;99.90;;;;;;5114829;28;20044;-85
2023/12/03 08:35:10;;;;;;;82.67;29.13;;;0.90;99.90;;;;;;5097905;28;20123;-86
2023/12/03 08:37:35;;;;;;;78.03;30.33;;;1.50;99.90;;;;;;5096550;28;20039;-85
2023/12/03 08:40:01;;;;;;;84.20;29.90;;;0.90;99.90;;;;;;5097215;28;20444;-86
2023/12/03 08:42:27;;;;;;;74.23;26.80;;;1.80;99.90;;;;;;5097413;28;20048;-86
2023/12/03 08:44:52;;;;;;;85.80;31.67;;;2.10;99.90;;;;;;5098075;28;20098;-84
2023/12/03 08:47:18;;;;;;;80.00;32.77;;;1.00;99.90;;;;;;5097660;28;20079;-86
2023/12/03 08:49:44;;;;;;;84.27;32.87;;;1.30;99.90;;;;;;5093958;28;20054;-84
2023/12/03 08:52:11;;;;;;;86.13;31.53;;;1.00;99.90;;;;;;5102284;28;20483;-85
2023/12/03 08:54:37;;;;;;;81.97;31.25;;;1.00;99.90;;;;;;5112108;28;20501;-84
2023/12/03 08:57:03;;;;;;;81.28;29.40;;;2.20;99.90;;;;;;5114598;28;20047;-84
2023/12/03 08:59:29;;;;;;;92.93;33.15;;;1.10;99.90;;;;;;5096640;28;20052;-85
2023/12/03 09:01:55;;;;;;;74.33;28.60;;;2.00;99.90;;;;;;5114597;28;20075;-84
2023/12/03 09:04:20;;;;;;;79.50;32.67;;;1.10;99.90;;;;;;5114473;28;20142;-90
2023/12/03 09:06:46;;;;;;;72.37;29.73;;;2.60;99.90;;;;;;5097140;28;20046;-85
2023/12/03 09:09:12;;;;;;;83.13;31.60;;;1.20;99.90;;;;;;5113024;28;20052;-86
2023/12/03 09:11:42;;;;;;;84.70;31.40;;;2.20;99.90;;;;;;5092990;28;20090;-85
2023/12/03 09:14:08;;;;;;;78.20;33.22;;;1.20;99.90;;;;;;5114251;28;20494;-85
2023/12/03 09:16:34;;;;;;;89.87;33.67;;;2.60;99.90;;;;;;5113735;28;20073;-86
2023/12/03 09:18:59;;;;;;;68.27;29.83;;;1.30;99.90;;;;;;5097343;28;20562;-85
2023/12/03 09:21:25;;;;;;;74.97;30.50;;;2.70;99.90;;;;;;5096722;28;20045;-87
2023/12/03 09:23:51;;;;;;;78.43;31.07;;;1.40;99.90;;;;;;5097639;28;20134;-86
2023/12/03 09:26:17;;;;;;;78.10;31.50;;;1.80;99.90;;;;;;5113860;28;20126;-85
2023/12/03 09:28:42;;;;;;;76.30;31.07;;;2.40;99.90;;;;;;5113212;28;20044;-85
2023/12/03 09:31:08;;;;;;;76.73;32.00;;;1.40;99.90;;;;;;5097108;28;20055;-85
2023/12/03 09:33:34;;;;;;;74.17;28.67;;;1.50;99.90;;;;;;5096215;28;20096;-85
2023/12/03 09:36:00;;;;;;;65.20;29.97;;;2.70;99.90;;;;;;5079580;28;20047;-86
2023/12/03 09:38:25;;;;;;;70.83;30.90;;;2.10;99.90;;;;;;5079910;28;20098;-87
2023/12/03 09:40:55;;;;;;;69.77;30.90;;;1.40;99.90;;;;;;5077951;28;20057;-85
2023/12/03 09:43:20;;;;;;;70.70;30.20;;;2.60;99.90;;;;;;5113544;28;20126;-86
2023/12/03 09:45:46;;;;;;;65.73;31.53;;;1.40;99.90;;;;;;5094336;28;20180;-86
2023/12/03 09:48:14;;;;;;;59.70;29.60;;;3.00;99.90;;;;;;5099313;28;20498;-85
2023/12/03 09:50:42;;;;;;;71.38;34.03;;;1.50;99.90;;;;;;5082563;28;20379;-86
2023/12/03 09:53:11;;;;;;;70.22;32.65;;;1.50;99.90;;;;;;5111905;28;20415;-85
2023/12/03 09:55:39;;;;;;;58.85;31.83;;;2.90;99.90;;;;;;5112502;28;20051;-86
2023/12/03 09:58:08;;;;;;;63.95;30.05;;;3.00;99.90;;;;;;5113768;28;20405;-84
2023/12/03 10:00:37;;;;;;;59.22;29.67;;;1.60;99.90;;;;;;5096204;28;20047;-86
2023/12/03 10:03:04;;;;;;;62.42;31.63;;;2.60;99.90;;;;;;5096386;28;20039;-87
2023/12/03 10:05:33;;;;;;;57.35;31.33;;;1.60;99.90;;;;;;5093426;28;20044;-88
2023/12/03 10:08:00;;;;;;;52.00;28.35;;;1.60;99.90;;;;;;5079575;28;20047;-86
2023/12/03 10:10:31;;;;;;;58.63;31.48;;;1.60;99.90;;;;;;5095357;28;20108;-86
2023/12/03 10:12:59;;;;;;;52.85;28.55;;;1.60;99.90;;;;;;5085663;28;20051;-86
2023/12/03 10:15:25;;;;;;;56.35;28.50;;;2.20;99.90;;;;;;5081250;28;20043;-87
2023/12/03 10:17:51;;;;;;;50.13;27.98;;;1.90;99.90;;;;;;5082206;28;20035;-86
2023/12/03 10:20:28;;;;;;;53.45;26.90;;;0.60;99.90;;;;;;5073414;28;20121;-87
2023/12/03 10:23:02;;;;;;;51.13;28.77;;;1.80;99.90;;;;;;5077184;28;20518;-87
2023/12/03 10:25:35;;;;;;;50.40;29.02;;;2.10;99.90;;;;;;5103082;28;20048;-85
2023/12/03 10:28:13;;;;;;;57.55;30.13;;;2.30;99.90;;;;;;5106359;28;20047;-87
2023/12/03 10:30:39;;;;;;;52.65;29.02;;;2.40;99.90;;;;;;5091513;28;20055;-86
2023/12/03 10:33:11;;;;;;;55.93;30.47;;;2.90;99.90;;;;;;5083055;28;20093;-85
2023/12/03 10:35:37;;;;;;;49.80;28.25;;;3.00;99.90;;;;;;5086498;28;20282;-86
2023/12/03 10:38:10;;;;;;;51.67;30.52;;;3.10;99.90;;;;;;5097647;28;20100;-88
2023/12/03 10:40:39;;;;;;;56.47;32.50;;;4.50;99.90;;;;;;5075585;28;20135;-89
2023/12/03 10:43:05;;;;;;;49.35;28.92;;;3.70;99.90;;;;;;5084261;28;20047;-88
2023/12/03 10:45:32;;;;;;;45.97;27.20;;;3.80;99.90;;;;;;5084345;28;20048;-88
2023/12/03 10:48:02;;;;;;;44.75;28.02;;;3.60;99.90;;;;;;5077646;28;20048;-87
2023/12/03 10:50:29;;;;;;;43.83;27.88;;;4.40;99.90;;;;;;5092475;28;20043;-87
2023/12/03 10:52:58;;;;;;;48.58;27.05;;;4.50;99.90;;;;;;5068220;28;20031;-88
2023/12/03 10:55:29;;;;;;;42.00;26.58;;;3.30;99.90;;;;;;5094301;28;20075;-90
2023/12/03 10:58:09;;;;;;;44.55;27.23;;;3.20;99.90;;;;;;5094014;28;20035;-89
2023/12/03 11:00:51;;;;;;;47.05;27.85;;;3.30;99.90;;;;;;5089502;28;20135;-87
2023/12/03 11:03:26;;;;;;;45.42;28.73;;;3.20;99.90;;;;;;5109100;28;20384;-87
2023/12/03 11:05:58;;;;;;;42.78;25.98;;;4.50;99.90;;;;;;5084575;28;20093;-87
2023/12/03 11:08:25;;;;;;;41.25;25.92;;;2.30;99.90;;;;;;5084812;28;20072;-86
2023/12/03 11:10:52;;;;;;;41.60;27.70;;;3.50;99.90;;;;;;5086925;28;20440;-87
2023/12/03 11:13:21;;;;;;;40.65;24.85;;;4.10;99.90;;;;;;5084763;28;20096;-88
2023/12/03 11:15:48;;;;;;;39.03;25.17;;;4.30;99.90;;;;;;5088822;28;20136;-87
2023/12/03 11:18:16;;;;;;;34.13;23.40;;;4.20;99.90;;;;;;5071121;28;20494;-87
2023/12/03 11:20:44;;;;;;;33.88;22.98;;;4.10;99.90;;;;;;5082931;28;20055;-87
2023/12/03 11:23:38;;;;;;;33.20;22.50;;;4.20;99.90;;;;;;5093967;28;20052;-87
2023/12/03 11:26:16;;;;;;;33.78;21.92;;;3.90;99.90;;;;;;5098399;28;20044;-87
2023/12/03 11:29:01;;;;;;;38.05;22.10;;;3.60;99.90;;;;;;5109420;28;20050;-85
2023/12/03 11:31:58;;;;;;;31.88;20.45;;;3.20;99.90;;;;;;5088836;28;20046;-86
2023/12/03 11:34:24;;;;;;;32.58;21.55;;;3.10;99.90;;;;;;5087784;28;20075;-87
2023/12/03 11:36:50;;;;;;;39.20;24.10;;;2.80;99.90;;;;;;5086805;28;20082;-87
2023/12/03 11:39:18;;;;;;;35.37;22.20;;;3.20;99.90;;;;;;5084824;28;20619;-87
2023/12/03 11:41:44;;;;;;;37.97;24.35;;;2.60;99.90;;;;;;5111448;28;20391;-88
2023/12/03 11:44:28;;;;;;;35.20;23.40;;;3.20;99.90;;;;;;5083483;28;20075;-89
2023/12/03 11:47:06;;;;;;;33.47;22.20;;;2.40;99.90;;;;;;5090053;28;20044;-87
2023/12/03 11:49:40;;;;;;;37.97;22.73;;;2.20;99.90;;;;;;5074594;28;20055;-87
2023/12/03 11:52:06;;;;;;;35.92;23.77;;;2.30;99.90;;;;;;5074347;28;20067;-87
2023/12/03 11:54:38;;;;;;;39.03;23.00;;;2.80;99.90;;;;;;5091753;28;20101;-87
2023/12/03 11:57:12;;;;;;;33.05;21.13;;;3.30;99.90;;;;;;5074188;28;20044;-87
2023/12/03 11:59:42;;;;;;;32.60;21.42;;;3.00;99.90;;;;;;5091228;28;20096;-86
2023/12/03 12:02:07;;;;;;;29.55;20.60;;;2.30;99.90;;;;;;5084435;28;20101;-86
2023/12/03 12:04:33;;;;;;;33.87;21.23;;;1.90;99.90;;;;;;5097179;28;20044;-87
2023/12/03 12:07:10;;;;;;;40.57;22.20;;;1.90;99.90;;;;;;5093584;28;20078;-86
2023/12/03 12:09:36;;;;;;;34.70;21.98;;;1.90;99.90;;;;;;5112031;28;20394;-87
2023/12/03 12:12:02;;;;;;;36.80;23.80;;;2.80;99.90;;;;;;5077305;28;20039;-86
2023/12/03 12:14:28;;;;;;;39.33;24.93;;;1.80;99.90;;;;;;5094558;28;20148;-86
2023/12/03 12:16:53;;;;;;;34.70;22.23;;;2.60;99.90;;;;;;5077054;28;20545;-86
2023/12/03 12:19:21;;;;;;;43.73;22.53;;;1.80;99.90;;;;;;5093007;28;20051;-86
2023/12/03 12:21:55;;;;;;;40.10;24.75;;;2.00;99.90;;;;;;5110868;28;20044;-88
2023/12/03 12:24:21;;;;;;;41.85;23.83;;;1.70;99.90;;;;;;5090874;28;20105;-85
2023/12/03 12:26:51;;;;;;;40.20;25.00;;;1.80;99.90;;;;;;5081528;28;20044;-86
2023/12/03 12:29:27;;;;;;;41.95;26.23;;;1.70;99.90;;;;;;5095256;28;20386;-86
2023/12/03 12:31:53;;;;;;;43.80;26.50;;;3.30;99.90;;;;;;5113734;28;20055;-86